Time;durP1;ratioP1;P1;durP2;ratioP2;P2;SDS_P1;SDS_P2;PMS_P1;PMS_P2;Temp;Humidity;BMP_temperature;BMP_pressure;BME280_temperature;BME280_humidity;BME280_pressure;Samples;Min_cycle;Max_cycle;Signal;HPM_P1;HPM_P2
2023/06/17 00:00:23;;;;;;;;;;;18.40;37.70;;;14.48;65.25;95506.72;4954676;28;19920;-49
2023/06/17 00:02:50;;;;;;;;;;;18.40;37.80;;;14.47;65.10;95508.56;4954456;28;19910;-53
2023/06/17 00:05:16;;;;;;;;;;;18.40;37.90;;;14.47;65.48;95508.56;4953527;28;19917;-50
2023/06/17 00:07:41;;;;;;;;;;;18.40;38.10;;;14.47;64.54;95505.09;4953911;28;19910;-52
2023/06/17 00:10:09;;;;;;;;;;;18.40;38.10;;;14.47;64.34;95505.88;4953734;28;19910;-51
2023/06/17 00:12:36;;;;;;;;;;;18.40;38.20;;;14.47;63.38;95500.53;4954254;28;19917;-52
2023/06/17 00:15:05;;;;;;;;;;;18.40;38.20;;;14.47;63.94;95505.88;4954696;28;20010;-49
2023/06/17 00:17:32;;;;;;;;;;;18.50;38.30;;;14.50;65.66;95510.66;4953150;28;19922;-51
2023/06/17 00:20:00;;;;;;;;;;;18.50;38.30;;;14.53;65.09;95503.97;4954460;28;19910;-53
2023/06/17 00:22:29;;;;;;;;;;;18.50;38.40;;;14.57;64.70;95504.97;4952658;28;20376;-49
2023/06/17 00:24:56;;;;;;;;;;;18.50;38.50;;;14.60;64.95;95511.63;4954096;28;19933;-49
2023/06/17 00:27:22;;;;;;;;;;;18.60;38.60;;;14.59;65.60;95502.81;4953506;28;20332;-52
2023/06/17 00:29:48;;;;;;;;;;;18.60;38.60;;;14.61;65.04;95511.34;4954069;28;19909;-51
2023/06/17 00:32:14;;;;;;;;;;;18.50;38.60;;;14.60;65.41;95501.69;4954278;28;20403;-49
2023/06/17 00:34:40;;;;;;;;;;;18.60;38.70;;;14.60;65.78;95506.28;4953239;28;20308;-53
2023/06/17 00:37:05;;;;;;;;;;;18.60;38.80;;;14.57;65.84;95508.47;4953976;28;19917;-48
2023/06/17 00:39:31;;;;;;;;;;;18.50;38.80;;;14.52;66.24;95500.50;4951849;28;19910;-47
2023/06/17 00:41:57;;;;;;;;;;;18.50;38.90;;;14.48;66.15;95498.66;4953815;28;20403;-48
2023/06/17 00:44:23;;;;;;;;;;;18.50;39.00;;;14.45;66.16;95502.72;4953908;28;19910;-49
2023/06/17 00:46:51;;;;;;;;;;;18.50;39.10;;;14.40;67.19;95499.31;4953073;28;19910;-48
2023/06/17 00:49:17;;;;;;;;;;;18.50;39.20;;;14.36;67.57;95501.78;4968824;28;19909;-49
2023/06/17 00:51:44;;;;;;;;;;;18.40;39.20;;;14.34;67.17;95501.25;4951506;28;19918;-46
2023/06/17 00:54:13;;;;;;;;;;;18.40;39.30;;;14.28;66.93;95489.81;4954135;28;20388;-48
2023/06/17 00:56:41;;;;;;;;;;;18.40;39.40;;;14.20;66.97;95492.38;4953815;28;19957;-50
2023/06/17 00:59:08;;;;;;;;;;;18.30;39.50;;;14.11;67.22;95489.53;4952946;28;19941;-49
2023/06/17 01:01:36;;;;;;;;;;;18.30;39.60;;;14.08;67.57;95488.22;4965539;28;19915;-49
2023/06/17 01:04:04;;;;;;;;;;;18.20;40.20;;;14.07;67.98;95483.97;4948636;29;20013;-52
2023/06/17 01:06:43;;;;;;;;;;;18.20;39.70;;;14.05;67.96;95494.16;4953802;28;20373;-47
2023/06/17 01:09:16;;;;;;;;;;;18.10;39.80;;;14.01;67.04;95493.16;4968745;28;19910;-53
2023/06/17 01:11:43;;;;;;;;;;;18.10;40.50;;;14.00;67.73;95488.06;4958461;28;19917;-51
2023/06/17 01:14:10;;;;;;;;;;;18.00;39.90;;;13.95;68.29;95491.63;4951270;29;20001;-51
2023/06/17 01:16:43;;;;;;;;;;;18.00;40.00;;;13.83;69.12;95488.56;4953310;28;20460;-50
2023/06/17 01:19:20;;;;;;;;;;;18.00;40.20;;;13.78;68.93;95493.97;4953761;29;20373;-48
2023/06/17 01:21:48;;;;;;;;;;;17.90;40.20;;;13.78;68.24;95499.31;4966352;28;19918;-52
2023/06/17 01:24:25;;;;;;;;;;;17.90;40.40;;;13.70;69.37;95498.09;4952866;28;20014;-54
2023/06/17 01:26:55;;;;;;;;;;;17.80;40.40;;;13.62;69.54;95488.78;4953884;28;20305;-49
2023/06/17 01:29:23;;;;;;;;;;;17.80;40.50;;;13.57;69.39;95493.41;4952625;28;20309;-53
2023/06/17 01:31:50;;;;;;;;;;;17.70;40.60;;;13.53;71.75;95495.06;4953716;28;19910;-52
2023/06/17 01:34:21;;;;;;;;;;;17.70;40.70;;;13.46;71.72;95494.63;4952651;28;19938;-54
2023/06/17 01:36:53;;;;;;;;;;;17.60;40.80;;;13.38;71.90;95493.34;4953271;28;20016;-53
2023/06/17 01:39:25;;;;;;;;;;;17.50;40.90;;;13.33;71.79;95493.41;4953742;28;20296;-52
2023/06/17 01:41:57;;;;;;;;;;;17.50;41.00;;;13.24;71.91;95492.41;4948092;28;19981;-53
2023/06/17 01:44:26;;;;;;;;;;;17.40;41.10;;;13.18;72.19;95495.13;4953560;28;20006;-54
2023/06/17 01:46:52;;;;;;;;;;;17.40;41.20;;;13.12;72.90;95501.59;4952774;28;19916;-52
2023/06/17 01:49:17;;;;;;;;;;;17.30;41.30;;;13.07;73.26;95495.53;4953331;28;19910;-52
2023/06/17 01:51:43;;;;;;;;;;;17.30;41.40;;;13.08;72.98;95497.91;4952278;29;20328;-51
2023/06/17 01:54:09;;;;;;;;;;;17.20;41.60;;;13.03;73.15;95499.81;4955384;28;19972;-54
2023/06/17 01:56:35;;;;;;;;;;;17.20;41.70;;;12.96;73.29;95495.59;4957042;28;19923;-48
2023/06/17 01:59:01;;;;;;;;;;;17.10;41.70;;;12.86;73.25;95494.91;4956276;28;19946;-49
2023/06/17 02:01:27;;;;;;;;;;;17.00;41.80;;;12.76;74.51;95492.31;4956937;28;19921;-50
2023/06/17 02:03:53;;;;;;;;;;;17.00;41.90;;;12.72;74.83;95487.53;4955439;28;19910;-53
2023/06/17 02:06:18;;;;;;;;;;;16.90;42.00;;;12.62;75.21;95487.59;4956787;28;19932;-54
2023/06/17 02:08:45;;;;;;;;;;;16.80;42.10;;;12.56;75.78;95483.38;4956715;28;19910;-49
2023/06/17 02:11:11;;;;;;;;;;;16.80;42.20;;;12.55;76.18;95491.69;4955602;28;19910;-50
2023/06/17 02:13:37;;;;;;;;;;;16.70;42.30;;;12.48;76.15;95495.47;4956830;28;20333;-52
2023/06/17 02:16:02;;;;;;;;;;;16.70;42.40;;;12.44;76.61;95488.25;4955552;28;20004;-51
2023/06/17 02:18:28;;;;;;;;;;;16.60;42.50;;;12.39;76.50;95485.66;4956597;28;19914;-51
2023/06/17 02:20:54;;;;;;;;;;;16.50;42.60;;;12.30;76.96;95487.31;4956667;28;20000;-51
2023/06/17 02:23:20;;;;;;;;;;;16.40;42.70;;;12.22;77.36;95486.00;4955519;28;19914;-49
2023/06/17 02:25:46;;;;;;;;;;;16.40;42.80;;;12.14;77.87;95481.28;4968434;28;19962;-51
2023/06/17 02:28:11;;;;;;;;;;;16.30;43.50;;;12.11;78.09;95479.94;4944527;28;20396;-53
2023/06/17 02:30:37;;;;;;;;;;;16.30;43.00;;;12.09;77.72;95479.41;4956515;28;19916;-53
2023/06/17 02:33:03;;;;;;;;;;;16.20;43.10;;;12.02;78.12;95473.59;4956128;28;20266;-50
2023/06/17 02:35:29;;;;;;;;;;;16.10;43.20;;;11.95;78.36;95481.13;4955247;28;19910;-53
2023/06/17 02:37:55;;;;;;;;;;;16.10;43.40;;;11.86;79.32;95483.56;4956364;28;19963;-50
2023/06/17 02:40:21;;;;;;;;;;;16.00;43.50;;;11.81;79.67;95489.69;4955531;28;19949;-49
2023/06/17 02:42:47;;;;;;;;;;;16.00;43.60;;;11.75;79.86;95480.13;4956260;28;19945;-52
2023/06/17 02:45:12;;;;;;;;;;;16.00;43.60;;;11.71;80.19;95487.06;4956329;28;20362;-49
2023/06/17 02:47:40;;;;;;;;;;;15.90;43.70;;;11.71;79.81;95486.25;4954943;28;19989;-52
2023/06/17 02:50:07;;;;;;;;;;;15.80;43.80;;;11.61;80.51;95487.09;4956383;28;19921;-51
2023/06/17 02:52:34;;;;;;;;;;;15.80;44.00;;;11.59;80.60;95478.56;4954916;28;19953;-53
2023/06/17 02:55:02;;;;;;;;;;;15.70;44.00;;;11.54;81.11;95476.72;4956164;28;20363;-52
2023/06/17 02:57:28;;;;;;;;;;;15.70;44.20;;;11.52;81.29;95480.72;4955389;28;19914;-49
2023/06/17 02:59:54;;;;;;;;;;;15.60;44.20;;;11.40;82.20;95478.38;4955910;28;19917;-52
2023/06/17 03:02:20;;;;;;;;;;;15.60;44.30;;;11.41;82.08;95473.84;4955859;28;19918;-48
2023/06/17 03:04:46;;;;;;;;;;;15.50;44.40;;;11.38;81.96;95469.84;4951288;28;20281;-53
2023/06/17 03:07:12;;;;;;;;;;;15.50;44.60;;;11.34;81.29;95474.94;4955731;28;20395;-50
2023/06/17 03:09:38;;;;;;;;;;;15.50;44.70;;;11.32;81.51;95479.72;4954875;28;19910;-48
2023/06/17 03:12:06;;;;;;;;;;;15.50;44.80;;;11.28;81.64;95477.88;4954770;28;20001;-54
2023/06/17 03:14:31;;;;;;;;;;;15.40;44.90;;;11.25;82.63;95481.06;4966510;28;19917;-52
2023/06/17 03:16:57;;;;;;;;;;;15.40;45.00;;;11.29;82.54;95474.16;4948996;28;19919;-51
2023/06/17 03:19:27;;;;;;;;;;;15.40;45.10;;;11.28;82.85;95478.69;4955871;28;19917;-52
2023/06/17 03:21:53;;;;;;;;;;;15.40;45.20;;;11.26;83.28;95475.47;4954361;28;20036;-48
2023/06/17 03:24:19;;;;;;;;;;;15.40;45.20;;;11.29;82.93;95477.59;4955503;28;19918;-49
2023/06/17 03:26:46;;;;;;;;;;;15.30;45.20;;;11.34;82.71;95477.59;4955423;28;20300;-52
2023/06/17 03:29:11;;;;;;;;;;;15.40;45.40;;;11.33;82.91;95484.00;4954413;28;20013;-52
2023/06/17 03:31:37;;;;;;;;;;;15.40;45.50;;;11.37;82.48;95478.13;4955447;28;20060;-54
2023/06/17 03:34:03;;;;;;;;;;;15.40;45.50;;;11.41;83.04;95487.97;4954748;28;19910;-52
2023/06/17 03:36:29;;;;;;;;;;;15.40;45.60;;;11.48;82.85;95488.47;4955269;28;20320;-50
2023/06/17 03:38:56;;;;;;;;;;;15.50;45.70;;;11.52;82.49;95484.19;4955484;28;19910;-51
2023/06/17 03:41:26;;;;;;;;;;;15.50;45.70;;;11.54;82.44;95489.28;4954457;28;19967;-51
2023/06/17 03:43:52;;;;;;;;;;;15.50;45.80;;;11.61;83.52;95487.09;4955033;28;19917;-53
2023/06/17 03:46:19;;;;;;;;;;;15.60;45.90;;;11.63;83.66;95492.97;4954324;28;19917;-50
2023/06/17 03:48:45;;;;;;;;;;;15.60;45.80;;;11.63;83.38;95487.63;4955179;28;19910;-54
2023/06/17 03:51:11;;;;;;;;;;;15.70;45.90;;;11.73;82.69;95489.47;4954842;28;20004;-51
2023/06/17 03:53:37;;;;;;;;;;;15.80;46.00;;;11.76;82.52;95488.91;4954130;28;20048;-50
2023/06/17 03:56:03;;;;;;;;;;;15.80;46.00;;;11.77;83.15;95485.97;4955110;28;19917;-51
2023/06/17 03:58:29;;;;;;;;;;;15.90;46.00;;;11.82;82.55;95485.16;4961271;28;19909;-52
2023/06/17 04:00:56;;;;;;;;;;;16.00;46.60;;;11.88;82.12;95481.41;4959090;28;20277;-52
2023/06/17 04:03:26;;;;;;;;;;;16.00;46.00;;;11.96;83.15;95486.16;4954138;28;19910;-50
2023/06/17 04:05:54;;;;;;;;;;;16.00;46.00;;;12.03;83.18;95493.88;4953580;28;27892;-53
2023/06/17 04:08:22;;;;;;;;;;;16.10;46.00;;;12.07;83.76;95496.81;4955140;28;19941;-53
2023/06/17 04:10:48;;;;;;;;;;;16.20;46.00;;;12.11;83.40;95495.97;4953743;28;19980;-52
2023/06/17 04:13:15;;;;;;;;;;;16.30;46.10;;;12.20;83.21;95496.97;4954701;28;19918;-51
2023/06/17 04:15:42;;;;;;;;;;;16.30;46.10;;;12.38;83.53;95497.38;4953468;28;19910;-53
2023/06/17 04:18:07;;;;;;;;;;;16.40;46.10;;;12.62;82.63;95503.63;4954487;28;19910;-50
2023/06/17 04:20:36;;;;;;;;;;;16.60;46.20;;;12.87;81.04;95504.50;4954345;28;19941;-48
2023/06/17 04:23:02;;;;;;;;;;;16.70;46.20;;;13.14;78.87;95504.81;4953516;28;20361;-50
2023/06/17 04:25:32;;;;;;;;;;;16.90;46.20;;;13.39;79.47;95508.34;4955573;23;19931;-51
2023/06/17 04:28:01;;;;;;;;;;;17.10;46.20;;;13.65;78.48;95509.63;4932232;29;19934;-45
2023/06/17 04:30:27;;;;;;;;;;;17.30;46.10;;;13.92;77.64;95504.78;4934226;28;19920;-45
2023/06/17 04:32:58;;;;;;;;;;;17.60;46.10;;;14.18;76.96;95499.88;4934305;29;19915;-45
2023/06/17 04:35:24;;;;;;;;;;;17.80;46.00;;;14.42;74.85;95505.19;4932854;29;20008;-45
2023/06/17 04:37:53;;;;;;;;;;;18.10;45.90;;;14.61;76.50;95502.53;4915730;29;20050;-46
2023/06/17 04:40:21;;;;;;;;;;;18.30;45.80;;;14.83;75.89;95502.69;4926368;29;19923;-45
2023/06/17 04:42:49;;;;;;;;;;;18.50;45.70;;;14.98;73.61;95498.97;4931634;29;19965;-51
2023/06/17 04:45:16;;;;;;;;;;;18.70;45.50;;;15.22;73.52;95507.66;4934148;29;19921;-46
2023/06/17 04:47:42;;;;;;;;;;;18.90;45.40;;;15.46;73.10;95498.66;4924133;29;19997;-45
2023/06/17 04:50:08;;;;;;;;;;;19.10;45.30;;;15.69;69.97;95504.94;4921436;29;19914;-45
2023/06/17 04:52:33;;;;;;;;;;;19.30;45.20;;;15.90;69.35;95494.59;4915888;29;20404;-45
2023/06/17 04:54:59;;;;;;;;;;;19.50;45.00;;;16.05;68.15;95502.34;4927783;29;19914;-50
2023/06/17 04:57:25;;;;;;;;;;;19.70;44.90;;;16.25;68.32;95497.63;4914577;29;19910;-53
2023/06/17 04:59:51;;;;;;;;;;;19.90;44.80;;;16.47;65.98;95494.97;4923961;29;19933;-49
2023/06/17 05:02:16;;;;;;;;;;;20.10;44.60;;;16.79;63.54;95498.56;4934036;29;19915;-47
2023/06/17 05:04:42;;;;;;;;;;;20.40;44.40;;;17.02;64.15;95505.53;4930246;29;20358;-44
2023/06/17 05:07:08;;;;;;;;;;;20.60;44.20;;;17.23;61.56;95496.94;4926989;29;19944;-46
2023/06/17 05:09:33;;;;;;;;;;;20.90;43.90;;;17.43;59.98;95501.81;4915004;29;19918;-46
2023/06/17 05:11:59;;;;;;;;;;;21.10;43.70;;;17.67;61.10;95501.41;4927485;29;19918;-49
2023/06/17 05:14:25;;;;;;;;;;;21.40;43.50;;;17.85;57.80;95504.22;4915010;29;20077;-51
2023/06/17 05:16:51;;;;;;;;;;;21.60;43.10;;;18.04;58.01;95505.53;4927173;29;19911;-45
2023/06/17 05:19:16;;;;;;;;;;;21.90;42.90;;;18.30;55.99;95506.69;4933862;29;19922;-46
2023/06/17 05:21:42;;;;;;;;;;;22.20;42.60;;;18.49;54.85;95509.91;4915427;29;19915;-47
2023/06/17 05:24:08;;;;;;;;;;;22.40;42.30;;;18.64;55.99;95504.00;4933426;29;19915;-46
2023/06/17 05:26:33;;;;;;;;;;;22.60;42.00;;;18.84;54.41;95504.53;4914430;29;19962;-48
2023/06/17 05:28:59;;;;;;;;;;;22.90;41.80;;;19.03;52.60;95499.56;4940087;28;20005;-46
2023/06/17 05:31:25;;;;;;;;;;;23.20;42.10;;;19.08;51.97;95510.19;4922561;29;19917;-48
2023/06/17 05:33:50;;;;;;;;;;;23.40;41.20;;;19.24;51.30;95504.28;4925664;29;19910;-49
2023/06/17 05:36:16;;;;;;;;;;;23.60;40.90;;;19.34;50.07;95498.56;4934428;29;19914;-48
2023/06/17 05:38:42;;;;;;;;;;;23.80;40.60;;;19.49;50.62;95506.16;4937971;28;20008;-49
2023/06/17 05:41:08;;;;;;;;;;;24.00;40.30;;;19.71;49.34;95501.63;4931131;28;19918;-55
2023/06/17 05:43:33;;;;;;;;;;;24.10;40.00;;;19.92;49.09;95507.09;4926854;29;20418;-50
2023/06/17 05:45:59;;;;;;;;;;;24.30;39.70;;;20.03;48.86;95514.53;4931363;29;20008;-48
2023/06/17 05:48:25;;;;;;;;;;;24.50;39.50;;;20.08;48.36;95514.31;4928930;28;19918;-46
2023/06/17 05:50:51;;;;;;;;;;;24.60;39.30;;;20.00;48.19;95515.16;4930257;29;19910;-50
2023/06/17 05:53:18;;;;;;;;;;;24.70;39.10;;;19.97;48.41;95515.81;4922905;29;20670;-48
2023/06/17 05:55:43;;;;;;;;;;;24.60;38.90;;;20.03;48.22;95519.94;4930387;29;19910;-48
2023/06/17 05:58:09;;;;;;;;;;;24.70;38.80;;;19.95;48.88;95512.63;4922434;29;19914;-47
2023/06/17 06:00:35;;;;;;;;;;;24.50;38.60;;;19.77;48.88;95524.63;4934337;28;20004;-52
2023/06/17 06:03:01;;;;;;;;;;;24.50;38.60;;;19.79;49.58;95517.81;4932390;29;19910;-49
2023/06/17 06:05:27;;;;;;;;;;;24.50;38.40;;;19.69;48.75;95522.78;4922231;29;20036;-51
2023/06/17 06:07:52;;;;;;;;;;;24.50;38.40;;;19.80;49.13;95524.78;4934377;28;19918;-50
2023/06/17 06:10:20;;;;;;;;;;;24.70;38.20;;;19.98;47.99;95530.13;4950708;28;19972;-51
2023/06/17 06:12:46;;;;;;;;;;;24.90;38.00;;;20.07;47.93;95525.47;4924194;28;19918;-50
2023/06/17 06:15:13;;;;;;;;;;;25.10;37.80;;;20.24;47.60;95527.28;4931720;29;19910;-49
2023/06/17 06:17:39;;;;;;;;;;;25.30;37.60;;;20.46;47.08;95523.47;4933645;28;20292;-51
2023/06/17 06:20:05;;;;;;;;;;;25.50;37.40;;;20.75;47.26;95525.38;4941030;28;19923;-51
2023/06/17 06:22:31;;;;;;;;;;;25.90;37.40;;;21.02;46.22;95535.63;4947747;28;19921;-53
2023/06/17 06:24:56;;;;;;;;;;;26.20;37.10;;;21.34;44.75;95529.75;4934040;28;20047;-50
2023/06/17 06:27:22;;;;;;;;;;;26.50;36.90;;;21.57;44.70;95532.91;4944366;28;19914;-50
2023/06/17 06:29:48;;;;;;;;;;;26.70;36.50;;;21.70;44.01;95543.44;4933235;28;19918;-50
2023/06/17 06:32:14;;;;;;;;;;;27.00;36.30;;;21.87;44.13;95541.63;4927641;28;19914;-48
2023/06/17 06:34:39;;;;;;;;;;;27.20;36.10;;;22.11;43.76;95541.66;4936090;28;19914;-50
2023/06/17 06:37:05;;;;;;;;;;;27.40;35.80;;;22.38;43.31;95542.13;4924168;29;19965;-49
2023/06/17 06:39:31;;;;;;;;;;;27.70;35.60;;;22.58;42.81;95545.84;4934788;28;19914;-56
2023/06/17 06:41:57;;;;;;;;;;;28.00;35.50;;;22.78;42.41;95547.63;4929278;28;19958;-54
2023/06/17 06:44:22;;;;;;;;;;;28.10;35.30;;;22.92;41.48;95549.16;4929751;29;19911;-52
2023/06/17 06:46:48;;;;;;;;;;;28.20;35.20;;;23.04;41.30;95549.16;4921984;29;19914;-49
2023/06/17 06:49:14;;;;;;;;;;;28.20;35.00;;;23.29;41.15;95550.63;4947544;28;19917;-54
2023/06/17 06:51:41;;;;;;;;;;;28.40;34.70;;;23.48;42.17;95552.69;4922683;29;20340;-53
2023/06/17 06:54:07;;;;;;;;;;;28.60;34.60;;;23.61;41.00;95549.91;4923307;29;20005;-53
2023/06/17 06:56:32;;;;;;;;;;;29.00;34.50;;;23.85;39.67;95554.41;4928990;29;20356;-52
2023/06/17 06:58:59;;;;;;;;;;;29.20;34.10;;;24.05;40.54;95556.09;4927133;29;19911;-55
2023/06/17 07:01:28;;;;;;;;;;;29.50;33.90;;;24.25;39.21;95548.78;4928597;29;20014;-50
2023/06/17 07:03:54;;;;;;;;;;;29.90;33.80;;;24.53;38.65;95554.13;4920302;29;19916;-48
2023/06/17 07:06:20;;;;;;;;;;;30.20;33.50;;;24.79;38.42;95547.28;4928397;28;20005;-46
2023/06/17 07:08:46;;;;;;;;;;;30.50;33.20;;;24.96;38.07;95554.28;4917406;29;20561;-49
2023/06/17 07:11:11;;;;;;;;;;;30.80;32.90;;;25.04;37.48;95550.53;4934884;29;19914;-46
2023/06/17 07:13:37;;;;;;;;;;;31.10;32.70;;;25.32;37.39;95555.78;4922971;29;19917;-48
2023/06/17 07:16:04;;;;;;;;;;;31.40;32.40;;;25.21;37.20;95555.59;4922778;29;19916;-47
2023/06/17 07:18:30;;;;;;;;;;;31.60;32.10;;;25.65;37.01;95568.88;4934298;29;19914;-47
2023/06/17 07:20:56;;;;;;;;;;;31.90;31.80;;;26.02;36.35;95558.28;4915907;29;19943;-48
2023/06/17 07:23:24;;;;;;;;;;;32.20;31.60;;;26.35;36.47;95558.78;4929560;29;19910;-49
2023/06/17 07:25:50;;;;;;;;;;;32.40;31.20;;;26.69;34.64;95556.97;4916203;29;19974;-52
2023/06/17 07:28:16;;;;;;;;;;;32.50;30.90;;;26.82;34.05;95557.53;4928265;28;19910;-49
2023/06/17 07:30:42;;;;;;;;;;;32.80;30.70;;;26.83;34.24;95556.41;4922892;29;19918;-53
2023/06/17 07:33:07;;;;;;;;;;;33.00;30.50;;;27.18;32.68;95562.34;4945404;28;19918;-53
2023/06/17 07:35:33;;;;;;;;;;;33.20;30.30;;;27.35;31.80;95560.97;4931045;29;19974;-49
2023/06/17 07:37:59;;;;;;;;;;;33.40;30.10;;;27.15;32.31;95554.09;4920305;29;19914;-50
2023/06/17 07:40:25;;;;;;;;;;;33.50;30.00;;;27.57;31.84;95564.72;4930746;29;19958;-51
2023/06/17 07:42:51;;;;;;;;;;;33.70;29.80;;;27.98;31.15;95553.03;4925803;29;19917;-50
2023/06/17 07:45:16;;;;;;;;;;;33.80;29.50;;;28.33;30.50;95558.00;4919097;29;19915;-52
2023/06/17 07:47:42;;;;;;;;;;;34.00;29.50;;;28.51;30.11;95558.97;4932600;29;20053;-50
2023/06/17 07:50:09;;;;;;;;;;;34.30;29.30;;;28.48;29.33;95548.75;4922378;29;20008;-48
2023/06/17 07:52:35;;;;;;;;;;;34.60;29.10;;;28.38;28.09;95554.94;4932435;28;19918;-50
2023/06/17 07:55:05;;;;;;;;;;;34.80;28.80;;;28.44;29.08;95553.44;4932139;29;20275;-48
2023/06/17 07:57:31;;;;;;;;;;;35.00;28.60;;;28.54;28.96;95549.97;4915014;29;20005;-53
2023/06/17 07:59:57;;;;;;;;;;;35.30;28.40;;;28.82;29.02;95546.63;4921785;29;20353;-52
2023/06/17 08:02:23;;;;;;;;;;;35.50;28.20;;;28.89;30.23;95553.31;4925081;29;20013;-53
2023/06/17 08:04:49;;;;;;;;;;;35.70;28.00;;;29.06;30.29;95547.19;4925471;29;19989;-49
2023/06/17 08:07:16;;;;;;;;;;;35.80;28.40;;;29.34;29.49;95537.50;4915913;28;19911;-47
2023/06/17 08:09:42;;;;;;;;;;;35.90;27.80;;;29.57;28.19;95540.69;4928517;29;19911;-51
2023/06/17 08:12:08;;;;;;;;;;;36.00;27.60;;;29.88;27.07;95541.16;4934781;29;19910;-49
2023/06/17 08:14:34;;;;;;;;;;;36.20;27.50;;;30.13;27.98;95541.97;4917962;29;19918;-53
2023/06/17 08:17:00;;;;;;;;;;;36.40;27.30;;;30.29;26.26;95540.81;4926335;29;19914;-49
2023/06/17 08:19:25;;;;;;;;;;;36.60;27.20;;;30.20;25.62;95533.75;4921342;29;19944;-50
2023/06/17 08:21:51;;;;;;;;;;;36.70;26.90;;;29.98;26.44;95532.91;4924819;29;19961;-49
2023/06/17 08:24:25;;;;;;;;;;;36.80;26.80;;;30.08;26.62;95527.81;4926832;29;20397;-47
2023/06/17 08:26:53;;;;;;;;;;;36.90;26.60;;;30.33;27.13;95525.09;4926154;29;19910;-48
2023/06/17 08:29:20;;;;;;;;;;;37.00;26.40;;;30.55;26.21;95525.84;4932464;29;19914;-52
2023/06/17 08:31:51;;;;;;;;;;;37.20;26.20;;;30.86;25.68;95524.25;4938422;28;19949;-53
2023/06/17 08:34:17;;;;;;;;;;;37.10;26.50;;;31.07;25.94;95524.19;4936585;28;20297;-49
2023/06/17 08:36:48;;;;;;;;;;;37.30;26.00;;;31.36;25.60;95521.31;4921236;29;19910;-48
2023/06/17 08:39:14;;;;;;;;;;;37.50;26.00;;;31.47;25.63;95513.81;4922364;28;19918;-47
2023/06/17 08:41:42;;;;;;;;;;;37.70;25.90;;;31.69;25.31;95517.22;4926040;28;19914;-48
2023/06/17 08:44:11;;;;;;;;;;;37.90;25.80;;;31.31;25.58;95518.97;4926414;29;19917;-51
2023/06/17 08:46:39;;;;;;;;;;;38.00;25.60;;;30.98;26.10;95510.06;4933617;29;19915;-49
2023/06/17 08:49:07;;;;;;;;;;;38.00;25.40;;;31.37;25.56;95508.34;4933831;29;20369;-48
2023/06/17 08:51:35;;;;;;;;;;;38.10;25.30;;;31.42;25.02;95508.72;4920508;29;19946;-50
2023/06/17 08:54:02;;;;;;;;;;;38.30;25.30;;;31.68;24.64;95512.88;4929815;29;19915;-52
2023/06/17 08:56:28;;;;;;;;;;;38.40;25.10;;;31.95;25.52;95515.88;4924018;29;19911;-52
2023/06/17 08:58:55;;;;;;;;;;;38.50;25.00;;;32.08;24.04;95513.41;4920939;29;20009;-51
2023/06/17 09:01:23;;;;;;;;;;;38.70;25.20;;;32.29;24.48;95504.19;4924564;29;19914;-52
2023/06/17 09:03:52;;;;;;;;;;;38.90;24.90;;;32.34;24.11;95506.53;4937371;28;19961;-53
2023/06/17 09:06:23;;;;;;;;;;;39.10;24.80;;;32.81;24.84;95509.63;4930019;28;20344;-48
2023/06/17 09:08:50;;;;;;;;;;;39.20;24.60;;;33.03;22.78;95506.63;4933559;29;19915;-51
2023/06/17 09:11:21;;;;;;;;;;;39.40;24.50;;;33.16;22.34;95505.69;4933035;28;19928;-49
2023/06/17 09:13:50;;;;;;;;;;;39.70;24.40;;;33.43;21.04;95510.44;4940035;28;19914;-48
2023/06/17 09:16:23;;;;;;;;;;;39.80;24.10;;;33.51;21.84;95503.66;4953753;28;19977;-49
2023/06/17 09:18:55;;;;;;;;;;;40.00;24.00;;;33.50;20.70;95504.06;4954317;28;19914;-57
2023/06/17 09:21:24;;;;;;;;;;;40.00;23.80;;;33.42;19.75;95503.38;4953575;28;19914;-48
2023/06/17 09:23:59;;;;;;;;;;;40.10;23.60;;;33.58;19.96;95494.50;4939376;28;20018;-49
2023/06/17 09:26:32;;;;;;;;;;;40.20;23.40;;;33.50;19.54;95510.41;4921109;29;19918;-48
2023/06/17 09:29:03;;;;;;;;;;;40.20;23.20;;;33.29;18.80;95505.91;4945487;28;19910;-53
2023/06/17 09:31:30;;;;;;;;;;;40.20;23.10;;;33.55;19.12;95490.59;4939541;28;19911;-54
2023/06/17 09:33:57;;;;;;;;;;;40.20;22.80;;;33.76;19.11;95500.56;4939070;28;19948;-48
2023/06/17 09:36:23;;;;;;;;;;;40.30;23.20;;;34.09;19.56;95496.09;4927193;28;19910;-48
2023/06/17 09:38:51;;;;;;;;;;;40.40;22.70;;;34.46;19.38;95493.50;4940020;28;19915;-48
2023/06/17 09:41:20;;;;;;;;;;;40.50;22.60;;;34.92;18.95;95487.13;4934762;28;20341;-48
2023/06/17 09:43:54;;;;;;;;;;;40.60;22.50;;;35.14;19.87;95493.06;4945970;28;19911;-48
2023/06/17 09:46:35;;;;;;;;;;;41.00;22.40;;;35.28;17.91;95483.66;4933546;28;19917;-49
2023/06/17 09:49:09;;;;;;;;;;;41.20;22.20;;;35.26;16.92;95486.09;4934243;28;19917;-48
2023/06/17 09:51:37;;;;;;;;;;;41.40;22.10;;;35.50;17.08;95483.97;4943269;28;19985;-53
2023/06/17 09:54:07;;;;;;;;;;;41.60;22.00;;;36.05;16.32;95496.22;4932171;29;19914;-48
2023/06/17 09:56:35;;;;;;;;;;;41.90;21.90;;;36.37;15.79;95492.63;4939809;28;19910;-48
2023/06/17 09:59:07;;;;;;;;;;;42.20;21.70;;;36.21;16.72;95483.56;4925165;28;19915;-48
2023/06/17 10:01:38;;;;;;;;;;;42.30;21.50;;;36.05;15.71;95482.34;4922953;28;19919;-59
2023/06/17 10:04:04;;;;;;;;;;;42.50;21.20;;;35.92;16.50;95479.47;4947103;28;19918;-52
2023/06/17 10:06:34;;;;;;;;;;;42.40;21.00;;;35.15;16.33;95466.94;4922655;28;19910;-54
2023/06/17 10:09:06;;;;;;;;;;;42.10;21.00;;;34.70;17.17;95478.47;4947932;28;19934;-51
2023/06/17 10:11:34;;;;;;;;;;;41.90;20.90;;;34.77;16.92;95483.09;4921276;28;19989;-53
2023/06/17 10:14:07;;;;;;;;;;;41.90;20.80;;;34.41;17.35;95472.69;4923211;28;19961;-48
2023/06/17 10:16:43;;;;;;;;;;;41.70;20.70;;;33.44;17.50;95469.81;4917381;29;19915;-51
2023/06/17 10:19:12;;;;;;;;;;;41.20;20.70;;;33.29;17.33;95477.53;4936364;28;20009;-51
2023/06/17 10:21:44;;;;;;;;;;;40.50;21.30;;;33.39;19.28;95469.09;4917991;28;19962;-52
2023/06/17 10:24:13;;;;;;;;;;;40.20;20.80;;;33.55;19.50;95468.50;4946333;28;19911;-51
2023/06/17 10:26:39;;;;;;;;;;;40.30;20.80;;;33.43;18.10;95466.28;4945864;28;20293;-51
2023/06/17 10:29:07;;;;;;;;;;;40.40;20.70;;;33.33;18.93;95462.47;4946921;28;19917;-53
2023/06/17 10:31:39;;;;;;;;;;;40.50;20.50;;;33.11;18.04;95464.75;4923719;29;19917;-50
2023/06/17 10:34:07;;;;;;;;;;;40.60;20.40;;;33.54;17.88;95461.44;4921540;29;20043;-51
2023/06/17 10:36:37;;;;;;;;;;;40.80;20.30;;;33.98;18.52;95456.03;4918416;28;19949;-53
2023/06/17 10:39:11;;;;;;;;;;;41.00;20.30;;;33.89;17.25;95453.00;4917963;29;19910;-50
2023/06/17 10:41:40;;;;;;;;;;;41.20;20.10;;;34.37;16.96;95449.06;4920959;29;20341;-50
2023/06/17 10:44:34;;;;;;;;;;;41.30;20.00;;;34.50;16.54;95452.75;4935398;29;19918;-53
2023/06/17 10:47:14;;;;;;;;;;;41.50;19.90;;;34.58;16.73;95451.44;4929920;29;19929;-52
2023/06/17 10:49:42;;;;;;;;;;;41.60;19.90;;;34.67;17.44;95450.91;4936191;29;19910;-51
2023/06/17 10:52:15;;;;;;;;;;;41.70;19.80;;;34.60;16.46;95442.72;4930762;29;19945;-54
2023/06/17 10:54:53;;;;;;;;;;;41.90;19.60;;;34.87;16.14;95434.28;4934680;29;19932;-51
2023/06/17 10:57:34;;;;;;;;;;;41.90;19.50;;;35.23;15.98;95432.34;4927387;28;19936;-50
2023/06/17 11:00:13;;;;;;;;;;;42.10;19.40;;;35.57;16.50;95434.00;4921991;29;20065;-51
2023/06/17 11:02:40;;;;;;;;;;;42.30;19.30;;;35.71;14.70;95427.34;4929782;29;19962;-52
2023/06/17 11:05:08;;;;;;;;;;;42.50;19.30;;;35.54;15.47;95432.09;4928457;29;20424;-51
2023/06/17 11:07:34;;;;;;;;;;;42.70;19.00;;;35.55;15.24;95424.56;4936043;29;20001;-53
2023/06/17 11:10:00;;;;;;;;;;;42.80;18.80;;;35.71;15.37;95424.56;4937132;28;20069;-48
2023/06/17 11:12:26;;;;;;;;;;;42.80;18.60;;;35.95;14.98;95427.16;4936499;29;19911;-50
2023/06/17 11:14:52;;;;;;;;;;;42.90;18.60;;;35.97;15.37;95436.59;4920335;29;19961;-53
2023/06/17 11:17:17;;;;;;;;;;;43.10;18.50;;;35.84;15.07;95428.19;4916825;29;19954;-53